sensor_id;sensor_type;location;lat;lon;timestamp;pressure;altitude;pressure_sealevel;temperature;humidity
24230;BME280;12362;50.004;8.006;2023-05-03T00:00:23;101687.72;;;7.24;100.00
24230;BME280;12362;50.004;8.006;2023-05-03T00:02:51;101686.84;;;7.24;100.00
24230;BME280;12362;50.004;8.006;2023-05-03T00:05:18;101685.91;;;7.29;100.00
24230;BME280;12362;50.004;8.006;2023-05-03T00:07:45;101691.16;;;7.25;100.00
24230;BME280;12362;50.004;8.006;2023-05-03T00:10:11;101692.06;;;7.22;100.00
24230;BME280;12362;50.004;8.006;2023-05-03T00:12:41;101691.53;;;7.00;100.00
24230;BME280;12362;50.004;8.006;2023-05-03T00:15:08;101689.03;;;6.92;100.00
24230;BME280;12362;50.004;8.006;2023-05-03T00:17:35;101694.13;;;6.98;100.00
24230;BME280;12362;50.004;8.006;2023-05-03T00:20:01;101692.16;;;7.15;100.00
24230;BME280;12362;50.004;8.006;2023-05-03T00:22:28;101683.81;;;6.97;100.00
24230;BME280;12362;50.004;8.006;2023-05-03T00:24:54;101677.72;;;7.04;100.00
24230;BME280;12362;50.004;8.006;2023-05-03T00:27:21;101669.06;;;7.05;100.00
24230;BME280;12362;50.004;8.006;2023-05-03T00:29:49;101681.09;;;7.07;100.00
24230;BME280;12362;50.004;8.006;2023-05-03T00:32:16;101669.13;;;7.02;100.00
24230;BME280;12362;50.004;8.006;2023-05-03T00:34:46;101666.78;;;6.85;100.00
24230;BME280;12362;50.004;8.006;2023-05-03T00:37:11;101669.34;;;6.85;100.00
24230;BME280;12362;50.004;8.006;2023-05-03T00:39:37;101653.81;;;6.90;100.00
24230;BME280;12362;50.004;8.006;2023-05-03T00:42:03;101649.41;;;6.95;100.00
24230;BME280;12362;50.004;8.006;2023-05-03T00:44:29;101654.59;;;6.93;100.00
24230;BME280;12362;50.004;8.006;2023-05-03T00:46:56;101654.56;;;6.96;100.00
24230;BME280;12362;50.004;8.006;2023-05-03T00:49:24;101658.94;;;6.93;100.00
24230;BME280;12362;50.004;8.006;2023-05-03T00:51:52;101663.19;;;6.95;100.00
24230;BME280;12362;50.004;8.006;2023-05-03T00:54:18;101658.09;;;6.89;100.00
24230;BME280;12362;50.004;8.006;2023-05-03T00:56:45;101649.47;;;6.90;100.00
24230;BME280;12362;50.004;8.006;2023-05-03T00:59:11;101662.00;;;6.55;100.00
24230;BME280;12362;50.004;8.006;2023-05-03T01:01:37;101658.84;;;6.29;100.00
24230;BME280;12362;50.004;8.006;2023-05-03T01:04:04;101659.59;;;6.42;100.00
24230;BME280;12362;50.004;8.006;2023-05-03T01:06:39;101651.75;;;6.48;100.00
24230;BME280;12362;50.004;8.006;2023-05-03T01:09:30;101659.06;;;6.13;100.00
24230;BME280;12362;50.004;8.006;2023-05-03T01:15:01;101664.41;;;5.95;100.00
24230;BME280;12362;50.004;8.006;2023-05-03T01:17:38;101657.41;;;6.05;100.00
24230;BME280;12362;50.004;8.006;2023-05-03T01:20:05;101654.09;;;5.95;100.00
24230;BME280;12362;50.004;8.006;2023-05-03T01:22:41;101660.97;;;5.93;100.00
24230;BME280;12362;50.004;8.006;2023-05-03T01:25:11;101661.97;;;5.80;100.00
24230;BME280;12362;50.004;8.006;2023-05-03T01:27:39;101652.56;;;5.73;100.00
24230;BME280;12362;50.004;8.006;2023-05-03T01:30:09;101657.00;;;5.56;100.00
24230;BME280;12362;50.004;8.006;2023-05-03T01:32:47;101651.88;;;5.55;100.00
24230;BME280;12362;50.004;8.006;2023-05-03T01:37:50;101651.97;;;5.43;100.00
24230;BME280;12362;50.004;8.006;2023-05-03T01:40:16;101651.13;;;5.41;100.00
24230;BME280;12362;50.004;8.006;2023-05-03T01:42:44;101651.25;;;5.25;100.00
24230;BME280;12362;50.004;8.006;2023-05-03T01:45:13;101655.53;;;5.21;100.00
24230;BME280;12362;50.004;8.006;2023-05-03T01:47:39;101659.94;;;5.12;100.00
24230;BME280;12362;50.004;8.006;2023-05-03T01:50:08;101660.72;;;5.17;100.00
24230;BME280;12362;50.004;8.006;2023-05-03T01:52:33;101659.06;;;5.11;100.00
24230;BME280;12362;50.004;8.006;2023-05-03T01:54:59;101665.13;;;4.98;100.00
24230;BME280;12362;50.004;8.006;2023-05-03T01:57:25;101668.56;;;5.00;100.00
24230;BME280;12362;50.004;8.006;2023-05-03T01:59:50;101672.81;;;5.06;100.00
24230;BME280;12362;50.004;8.006;2023-05-03T02:02:16;101669.44;;;4.98;100.00
24230;BME280;12362;50.004;8.006;2023-05-03T02:04:42;101665.19;;;4.92;100.00
24230;BME280;12362;50.004;8.006;2023-05-03T02:07:07;101676.34;;;4.91;100.00
24230;BME280;12362;50.004;8.006;2023-05-03T02:09:33;101674.63;;;4.90;100.00
24230;BME280;12362;50.004;8.006;2023-05-03T02:11:59;101676.38;;;4.85;100.00
24230;BME280;12362;50.004;8.006;2023-05-03T02:14:25;101680.66;;;4.85;100.00
24230;BME280;12362;50.004;8.006;2023-05-03T02:16:50;101678.09;;;4.85;100.00
24230;BME280;12362;50.004;8.006;2023-05-03T02:19:16;101677.25;;;4.80;100.00
24230;BME280;12362;50.004;8.006;2023-05-03T02:21:41;101676.41;;;4.82;100.00
24230;BME280;12362;50.004;8.006;2023-05-03T02:24:07;101671.31;;;4.73;100.00
24230;BME280;12362;50.004;8.006;2023-05-03T02:26:33;101678.19;;;4.62;100.00
24230;BME280;12362;50.004;8.006;2023-05-03T02:28:58;101682.53;;;4.51;100.00
24230;BME280;12362;50.004;8.006;2023-05-03T02:31:26;101683.41;;;4.49;100.00
24230;BME280;12362;50.004;8.006;2023-05-03T02:33:52;101682.59;;;4.34;100.00
24230;BME280;12362;50.004;8.006;2023-05-03T02:36:20;101687.72;;;4.44;100.00
24230;BME280;12362;50.004;8.006;2023-05-03T02:38:46;101691.16;;;4.40;100.00
24230;BME280;12362;50.004;8.006;2023-05-03T02:41:12;101691.13;;;4.46;100.00
24230;BME280;12362;50.004;8.006;2023-05-03T02:43:38;101691.13;;;4.39;100.00
24230;BME280;12362;50.004;8.006;2023-05-03T02:46:04;101690.25;;;4.50;100.00
24230;BME280;12362;50.004;8.006;2023-05-03T02:48:30;101686.00;;;4.47;100.00
24230;BME280;12362;50.004;8.006;2023-05-03T02:50:56;101686.81;;;4.55;100.00
24230;BME280;12362;50.004;8.006;2023-05-03T02:53:21;101689.41;;;4.49;100.00
24230;BME280;12362;50.004;8.006;2023-05-03T02:55:48;101685.16;;;4.41;100.00
24230;BME280;12362;50.004;8.006;2023-05-03T02:58:14;101684.34;;;4.30;100.00
24230;BME280;12362;50.004;8.006;2023-05-03T03:00:40;101681.75;;;4.38;100.00
24230;BME280;12362;50.004;8.006;2023-05-03T03:03:06;101674.84;;;4.40;100.00
24230;BME280;12362;50.004;8.006;2023-05-03T03:05:32;101674.03;;;4.38;100.00
24230;BME280;12362;50.004;8.006;2023-05-03T03:07:58;101678.28;;;4.39;100.00
24230;BME280;12362;50.004;8.006;2023-05-03T03:10:24;101668.03;;;4.30;100.00
24230;BME280;12362;50.004;8.006;2023-05-03T03:12:50;101663.84;;;3.99;100.00
24230;BME280;12362;50.004;8.006;2023-05-03T03:15:26;101671.53;;;4.11;100.00
24230;BME280;12362;50.004;8.006;2023-05-03T03:17:51;101674.09;;;4.18;100.00
24230;BME280;12362;50.004;8.006;2023-05-03T03:20:21;101666.38;;;4.12;100.00
24230;BME280;12362;50.004;8.006;2023-05-03T03:22:47;101660.41;;;3.98;100.00
24230;BME280;12362;50.004;8.006;2023-05-03T03:25:13;101658.72;;;3.94;100.00
24230;BME280;12362;50.004;8.006;2023-05-03T03:27:38;101658.72;;;3.91;100.00
24230;BME280;12362;50.004;8.006;2023-05-03T03:30:05;101658.72;;;3.91;100.00
24230;BME280;12362;50.004;8.006;2023-05-03T03:32:35;101655.31;;;3.83;100.00
24230;BME280;12362;50.004;8.006;2023-05-03T03:35:04;101660.44;;;3.88;100.00
24230;BME280;12362;50.004;8.006;2023-05-03T03:37:30;101657.84;;;4.01;100.00
24230;BME280;12362;50.004;8.006;2023-05-03T03:39:56;101663.00;;;3.82;100.00
24230;BME280;12362;50.004;8.006;2023-05-03T03:42:21;101669.00;;;3.84;100.00
24230;BME280;12362;50.004;8.006;2023-05-03T03:44:48;101668.13;;;3.92;100.00
24230;BME280;12362;50.004;8.006;2023-05-03T03:47:14;101676.72;;;3.72;100.00
24230;BME280;12362;50.004;8.006;2023-05-03T03:49:43;101679.28;;;3.75;100.00
24230;BME280;12362;50.004;8.006;2023-05-03T03:52:09;101684.41;;;3.69;100.00
24230;BME280;12362;50.004;8.006;2023-05-03T03:54:35;101681.00;;;3.64;100.00
24230;BME280;12362;50.004;8.006;2023-05-03T03:57:01;101680.13;;;3.63;100.00
24230;BME280;12362;50.004;8.006;2023-05-03T03:59:28;101681.00;;;3.57;100.00
24230;BME280;12362;50.004;8.006;2023-05-03T04:01:58;101684.44;;;3.56;100.00
24230;BME280;12362;50.004;8.006;2023-05-03T04:04:25;101679.28;;;3.50;100.00
24230;BME280;12362;50.004;8.006;2023-05-03T04:06:52;101685.28;;;3.46;100.00
24230;BME280;12362;50.004;8.006;2023-05-03T04:09:19;101685.28;;;3.44;100.00
24230;BME280;12362;50.004;8.006;2023-05-03T04:11:45;101692.16;;;3.54;100.00
24230;BME280;12362;50.004;8.006;2023-05-03T04:14:11;101687.00;;;3.57;100.00
24230;BME280;12362;50.004;8.006;2023-05-03T04:16:38;101686.13;;;3.54;100.00
24230;BME280;12362;50.004;8.006;2023-05-03T04:19:05;101689.56;;;3.60;100.00
24230;BME280;12362;50.004;8.006;2023-05-03T04:21:34;101685.28;;;3.65;100.00
24230;BME280;12362;50.004;8.006;2023-05-03T04:23:59;101684.44;;;3.67;100.00
24230;BME280;12362;50.004;8.006;2023-05-03T04:26:31;101680.13;;;3.90;100.00
24230;BME280;12362;50.004;8.006;2023-05-03T04:29:01;101682.66;;;4.11;100.00
24230;BME280;12362;50.004;8.006;2023-05-03T04:31:28;101689.53;;;4.14;100.00
24230;BME280;12362;50.004;8.006;2023-05-03T04:33:55;101684.34;;;4.26;100.00
24230;BME280;12362;50.004;8.006;2023-05-03T04:36:23;101674.03;;;4.35;100.00
24230;BME280;12362;50.004;8.006;2023-05-03T04:38:51;101689.44;;;4.32;100.00
24230;BME280;12362;50.004;8.006;2023-05-03T04:41:16;101689.41;;;4.41;100.00
24230;BME280;12362;50.004;8.006;2023-05-03T04:43:44;101679.06;;;4.60;100.00
24230;BME280;12362;50.004;8.006;2023-05-03T04:46:10;101677.34;;;4.65;100.00
24230;BME280;12362;50.004;8.006;2023-05-03T04:48:36;101684.13;;;4.78;100.00
24230;BME280;12362;50.004;8.006;2023-05-03T04:51:02;101681.50;;;4.88;100.00
24230;BME280;12362;50.004;8.006;2023-05-03T04:53:28;101679.72;;;5.02;100.00
24230;BME280;12362;50.004;8.006;2023-05-03T04:56:03;101680.53;;;5.09;100.00
24230;BME280;12362;50.004;8.006;2023-05-03T04:58:31;101676.22;;;5.14;100.00
24230;BME280;12362;50.004;8.006;2023-05-03T05:00:57;101681.25;;;5.29;100.00
24230;BME280;12362;50.004;8.006;2023-05-03T05:03:27;101680.31;;;5.43;100.00
24230;BME280;12362;50.004;8.006;2023-05-03T05:06:02;101684.47;;;5.57;100.00
24230;BME280;12362;50.004;8.006;2023-05-03T05:08:37;101682.56;;;5.83;100.00
24230;BME280;12362;50.004;8.006;2023-05-03T05:11:06;101673.69;;;6.10;100.00
24230;BME280;12362;50.004;8.006;2023-05-03T05:13:33;101671.69;;;6.34;100.00
24230;BME280;12362;50.004;8.006;2023-05-03T05:16:00;101679.25;;;6.52;100.00
24230;BME280;12362;50.004;8.006;2023-05-03T05:18:26;101676.47;;;6.67;100.00
24230;BME280;12362;50.004;8.006;2023-05-03T05:20:54;101673.69;;;6.83;100.00
24230;BME280;12362;50.004;8.006;2023-05-03T05:23:20;101669.13;;;7.02;100.00
24230;BME280;12362;50.004;8.006;2023-05-03T05:26:26;101679.25;;;7.15;100.00
24230;BME280;12362;50.004;8.006;2023-05-03T05:29:04;101676.28;;;7.39;100.00
24230;BME280;12362;50.004;8.006;2023-05-03T05:31:42;101676.94;;;7.53;100.00
24230;BME280;12362;50.004;8.006;2023-05-03T05:34:07;101666.38;;;7.66;100.00
24230;BME280;12362;50.004;8.006;2023-05-03T05:36:34;101667.88;;;7.79;100.00
24230;BME280;12362;50.004;8.006;2023-05-03T05:39:20;101667.47;;;8.02;100.00
24230;BME280;12362;50.004;8.006;2023-05-03T05:41:48;101664.50;;;8.22;100.00
24230;BME280;12362;50.004;8.006;2023-05-03T05:44:14;101665.75;;;8.47;100.00
24230;BME280;12362;50.004;8.006;2023-05-03T05:46:52;101662.75;;;8.67;100.00
24230;BME280;12362;50.004;8.006;2023-05-03T05:49:19;101656.72;;;9.05;100.00
24230;BME280;12362;50.004;8.006;2023-05-03T05:51:47;101649.34;;;9.24;100.00
24230;BME280;12362;50.004;8.006;2023-05-03T05:54:44;101641.63;;;9.57;100.00
24230;BME280;12362;50.004;8.006;2023-05-03T06:01:02;101636.13;;;10.34;100.00
24230;BME280;12362;50.004;8.006;2023-05-03T06:16:05;101646.09;;;11.60;100.00
24230;BME280;12362;50.004;8.006;2023-05-03T06:18:32;101655.28;;;11.70;100.00
24230;BME280;12362;50.004;8.006;2023-05-03T06:21:00;101642.63;;;12.10;100.00
24230;BME280;12362;50.004;8.006;2023-05-03T06:23:29;101652.03;;;11.89;100.00
24230;BME280;12362;50.004;8.006;2023-05-03T06:26:04;101645.16;;;12.36;100.00
24230;BME280;12362;50.004;8.006;2023-05-03T06:32:15;101641.03;;;12.53;100.00
24230;BME280;12362;50.004;8.006;2023-05-03T06:34:53;101631.88;;;12.87;100.00
24230;BME280;12362;50.004;8.006;2023-05-03T06:37:19;101632.00;;;13.70;99.81
24230;BME280;12362;50.004;8.006;2023-05-03T06:39:44;101621.38;;;13.94;95.55
24230;BME280;12362;50.004;8.006;2023-05-03T06:42:10;101635.47;;;13.70;96.80
24230;BME280;12362;50.004;8.006;2023-05-03T06:44:38;101627.78;;;13.46;96.23
24230;BME280;12362;50.004;8.006;2023-05-03T06:47:10;101625.94;;;13.69;94.22
24230;BME280;12362;50.004;8.006;2023-05-03T06:49:59;101628.88;;;13.62;95.48
24230;BME280;12362;50.004;8.006;2023-05-03T06:56:17;101627.88;;;13.64;86.93
24230;BME280;12362;50.004;8.006;2023-05-03T06:58:46;101627.66;;;13.49;92.39
24230;BME280;12362;50.004;8.006;2023-05-03T07:01:19;101619.81;;;14.30;80.50
24230;BME280;12362;50.004;8.006;2023-05-03T07:04:29;101613.28;;;15.31;76.55
24230;BME280;12362;50.004;8.006;2023-05-03T07:07:36;101616.13;;;15.26;80.51
24230;BME280;12362;50.004;8.006;2023-05-03T07:10:48;101620.25;;;14.95;82.34
24230;BME280;12362;50.004;8.006;2023-05-03T07:13:14;101611.91;;;15.05;75.56
24230;BME280;12362;50.004;8.006;2023-05-03T07:15:43;101619.28;;;15.33;81.33
24230;BME280;12362;50.004;8.006;2023-05-03T07:18:10;101613.28;;;15.31;72.84
24230;BME280;12362;50.004;8.006;2023-05-03T07:21:09;101617.00;;;15.44;78.85
24230;BME280;12362;50.004;8.006;2023-05-03T07:23:50;101601.38;;;16.25;68.52
24230;BME280;12362;50.004;8.006;2023-05-03T07:26:17;101601.25;;;15.79;66.59
24230;BME280;12362;50.004;8.006;2023-05-03T07:28:46;101598.56;;;16.13;71.97
24230;BME280;12362;50.004;8.006;2023-05-03T07:31:14;101598.09;;;15.72;65.47
24230;BME280;12362;50.004;8.006;2023-05-03T07:33:40;101595.63;;;16.19;67.43
24230;BME280;12362;50.004;8.006;2023-05-03T07:36:06;101583.28;;;16.53;61.62
24230;BME280;12362;50.004;8.006;2023-05-03T07:38:32;101579.91;;;16.97;64.50
24230;BME280;12362;50.004;8.006;2023-05-03T07:40:58;101581.78;;;16.80;60.84
24230;BME280;12362;50.004;8.006;2023-05-03T07:43:24;101589.13;;;16.26;61.94
24230;BME280;12362;50.004;8.006;2023-05-03T07:45:53;101588.63;;;16.82;60.22
24230;BME280;12362;50.004;8.006;2023-05-03T07:48:19;101577.09;;;17.16;62.29
24230;BME280;12362;50.004;8.006;2023-05-03T07:50:44;101579.84;;;17.43;62.08
24230;BME280;12362;50.004;8.006;2023-05-03T07:53:11;101572.72;;;18.46;58.13
24230;BME280;12362;50.004;8.006;2023-05-03T07:55:37;101578.66;;;17.92;58.97
24230;BME280;12362;50.004;8.006;2023-05-03T07:58:03;101567.50;;;18.03;57.72
24230;BME280;12362;50.004;8.006;2023-05-03T08:00:29;101575.84;;;17.95;58.08
24230;BME280;12362;50.004;8.006;2023-05-03T08:02:55;101573.28;;;17.06;56.19
24230;BME280;12362;50.004;8.006;2023-05-03T08:05:22;101564.78;;;18.04;56.04
24230;BME280;12362;50.004;8.006;2023-05-03T08:07:50;101575.13;;;17.64;57.83
24230;BME280;12362;50.004;8.006;2023-05-03T08:10:16;101577.41;;;18.41;57.21
24230;BME280;12362;50.004;8.006;2023-05-03T08:12:42;101562.09;;;18.88;55.65
24230;BME280;12362;50.004;8.006;2023-05-03T08:15:08;101558.41;;;18.50;53.09
24230;BME280;12362;50.004;8.006;2023-05-03T08:17:44;101570.50;;;17.97;54.04
24230;BME280;12362;50.004;8.006;2023-05-03T08:20:11;101569.63;;;18.39;53.22
24230;BME280;12362;50.004;8.006;2023-05-03T08:22:37;101564.31;;;18.12;54.38
24230;BME280;12362;50.004;8.006;2023-05-03T08:25:05;101558.91;;;19.09;52.93
24230;BME280;12362;50.004;8.006;2023-05-03T08:27:31;101567.94;;;18.79;51.32
24230;BME280;12362;50.004;8.006;2023-05-03T08:29:57;101560.13;;;18.77;53.14
24230;BME280;12362;50.004;8.006;2023-05-03T08:32:22;101562.69;;;19.31;51.90
24230;BME280;12362;50.004;8.006;2023-05-03T08:34:49;101563.75;;;19.03;50.87
24230;BME280;12362;50.004;8.006;2023-05-03T08:37:15;101552.81;;;19.35;48.19
24230;BME280;12362;50.004;8.006;2023-05-03T08:39:40;101554.59;;;19.08;49.57
24230;BME280;12362;50.004;8.006;2023-05-03T08:42:07;101557.34;;;19.07;55.33
24230;BME280;12362;50.004;8.006;2023-05-03T08:44:36;101541.16;;;18.32;48.80
24230;BME280;12362;50.004;8.006;2023-05-03T08:47:08;101552.19;;;18.51;48.50
24230;BME280;12362;50.004;8.006;2023-05-03T08:49:35;101558.19;;;18.67;52.76
24230;BME280;12362;50.004;8.006;2023-05-03T08:52:05;101547.34;;;18.85;51.70
24230;BME280;12362;50.004;8.006;2023-05-03T08:54:31;101553.88;;;18.92;49.58
24230;BME280;12362;50.004;8.006;2023-05-03T08:56:56;101539.41;;;19.38;49.28
24230;BME280;12362;50.004;8.006;2023-05-03T08:59:22;101548.88;;;19.28;51.08
24230;BME280;12362;50.004;8.006;2023-05-03T09:01:51;101547.81;;;19.04;49.92
24230;BME280;12362;50.004;8.006;2023-05-03T09:04:16;101547.31;;;19.38;51.73
24230;BME280;12362;50.004;8.006;2023-05-03T09:06:45;101541.50;;;19.20;49.67
24230;BME280;12362;50.004;8.006;2023-05-03T09:09:11;101536.16;;;19.34;50.46
24230;BME280;12362;50.004;8.006;2023-05-03T09:11:38;101539.34;;;19.52;49.90
24230;BME280;12362;50.004;8.006;2023-05-03T09:16:35;101535.59;;;20.18;49.03
24230;BME280;12362;50.004;8.006;2023-05-03T09:19:02;101535.28;;;20.22;48.11
24230;BME280;12362;50.004;8.006;2023-05-03T09:21:39;101525.81;;;20.43;46.11
24230;BME280;12362;50.004;8.006;2023-05-03T09:24:20;101522.28;;;20.19;42.90
24230;BME280;12362;50.004;8.006;2023-05-03T09:26:49;101523.56;;;19.89;46.02
24230;BME280;12362;50.004;8.006;2023-05-03T09:29:32;101514.28;;;20.21;46.00
24230;BME280;12362;50.004;8.006;2023-05-03T09:32:04;101511.25;;;21.09;43.75
24230;BME280;12362;50.004;8.006;2023-05-03T09:34:37;101515.13;;;20.93;44.43
24230;BME280;12362;50.004;8.006;2023-05-03T09:37:03;101516.00;;;20.94;46.51
24230;BME280;12362;50.004;8.006;2023-05-03T09:39:28;101505.66;;;20.91;47.00
24230;BME280;12362;50.004;8.006;2023-05-03T09:41:57;101507.31;;;19.70;47.57
24230;BME280;12362;50.004;8.006;2023-05-03T09:44:40;101505.66;;;20.07;48.46
24230;BME280;12362;50.004;8.006;2023-05-03T09:47:06;101505.16;;;20.37;46.66
24230;BME280;12362;50.004;8.006;2023-05-03T09:49:33;101499.56;;;20.42;46.82
24230;BME280;12362;50.004;8.006;2023-05-03T09:52:02;101488.84;;;21.26;45.71
24230;BME280;12362;50.004;8.006;2023-05-03T09:54:29;101500.56;;;20.64;48.59
24230;BME280;12362;50.004;8.006;2023-05-03T09:57:04;101495.84;;;20.80;42.26
24230;BME280;12362;50.004;8.006;2023-05-03T09:59:31;101491.50;;;20.92;45.22
24230;BME280;12362;50.004;8.006;2023-05-03T10:02:00;101494.78;;;20.11;45.01
24230;BME280;12362;50.004;8.006;2023-05-03T10:04:28;101498.16;;;20.85;47.64
24230;BME280;12362;50.004;8.006;2023-05-03T10:06:58;101493.16;;;21.27;44.12
24230;BME280;12362;50.004;8.006;2023-05-03T10:13:13;101501.56;;;21.55;43.73
24230;BME280;12362;50.004;8.006;2023-05-03T10:15:39;101494.38;;;21.57;45.04
24230;BME280;12362;50.004;8.006;2023-05-03T10:18:08;101495.84;;;21.83;44.66
24230;BME280;12362;50.004;8.006;2023-05-03T10:20:42;101489.72;;;22.04;40.26
24230;BME280;12362;50.004;8.006;2023-05-03T10:23:11;101489.84;;;22.25;39.96
24230;BME280;12362;50.004;8.006;2023-05-03T10:25:38;101489.09;;;21.00;44.45
24230;BME280;12362;50.004;8.006;2023-05-03T10:28:08;101489.97;;;22.01;42.90
24230;BME280;12362;50.004;8.006;2023-05-03T10:30:40;101473.38;;;22.75;42.95
24230;BME280;12362;50.004;8.006;2023-05-03T10:35:40;101474.69;;;21.38;42.16
24230;BME280;12362;50.004;8.006;2023-05-03T10:38:19;101455.16;;;22.28;39.92
24230;BME280;12362;50.004;8.006;2023-05-03T10:40:45;101467.09;;;21.22;42.08
24230;BME280;12362;50.004;8.006;2023-05-03T10:45:58;101451.22;;;22.22;39.27
24230;BME280;12362;50.004;8.006;2023-05-03T10:48:26;101458.56;;;22.19;42.77
24230;BME280;12362;50.004;8.006;2023-05-03T10:50:53;101465.31;;;21.90;41.74
24230;BME280;12362;50.004;8.006;2023-05-03T10:53:39;101457.09;;;22.48;39.23
24230;BME280;12362;50.004;8.006;2023-05-03T10:56:11;101452.88;;;22.45;39.17
24230;BME280;12362;50.004;8.006;2023-05-03T10:58:45;101448.47;;;22.35;42.22
24230;BME280;12362;50.004;8.006;2023-05-03T11:01:16;101445.34;;;23.03;43.32
24230;BME280;12362;50.004;8.006;2023-05-03T11:03:57;101439.53;;;23.50;41.04
24230;BME280;12362;50.004;8.006;2023-05-03T11:06:30;101435.19;;;23.70;40.19
24230;BME280;12362;50.004;8.006;2023-05-03T11:09:00;101433.66;;;23.26;36.61
24230;BME280;12362;50.004;8.006;2023-05-03T11:11:26;101440.16;;;22.39;42.00
24230;BME280;12362;50.004;8.006;2023-05-03T11:13:53;101432.03;;;22.52;43.87
24230;BME280;12362;50.004;8.006;2023-05-03T11:16:22;101421.97;;;22.97;38.77
24230;BME280;12362;50.004;8.006;2023-05-03T11:21:47;101423.72;;;22.88;38.43
24230;BME280;12362;50.004;8.006;2023-05-03T11:24:13;101422.03;;;23.18;38.07
24230;BME280;12362;50.004;8.006;2023-05-03T11:26:39;101414.13;;;23.07;40.67
24230;BME280;12362;50.004;8.006;2023-05-03T11:29:05;101412.22;;;23.09;40.06
24230;BME280;12362;50.004;8.006;2023-05-03T11:31:30;101411.53;;;22.96;43.00
24230;BME280;12362;50.004;8.006;2023-05-03T11:33:56;101403.16;;;23.32;40.79
24230;BME280;12362;50.004;8.006;2023-05-03T11:36:22;101398.38;;;23.26;41.76
24230;BME280;12362;50.004;8.006;2023-05-03T11:38:47;101395.13;;;23.22;38.72
24230;BME280;12362;50.004;8.006;2023-05-03T11:41:15;101400.63;;;23.10;42.34
24230;BME280;12362;50.004;8.006;2023-05-03T11:43:46;101393.69;;;22.98;43.28
24230;BME280;12362;50.004;8.006;2023-05-03T11:46:16;101390.59;;;23.34;42.57
24230;BME280;12362;50.004;8.006;2023-05-03T11:48:43;101390.50;;;23.04;38.72
24230;BME280;12362;50.004;8.006;2023-05-03T11:51:10;101376.78;;;23.30;39.73
24230;BME280;12362;50.004;8.006;2023-05-03T11:53:40;101371.50;;;23.70;40.95
24230;BME280;12362;50.004;8.006;2023-05-03T11:56:11;101367.09;;;24.38;37.04
24230;BME280;12362;50.004;8.006;2023-05-03T11:59:00;101373.34;;;24.27;40.02
24230;BME280;12362;50.004;8.006;2023-05-03T12:01:27;101371.34;;;24.10;40.04
24230;BME280;12362;50.004;8.006;2023-05-03T12:03:58;101358.91;;;23.92;39.10
24230;BME280;12362;50.004;8.006;2023-05-03T12:06:24;101372.53;;;22.67;40.74
24230;BME280;12362;50.004;8.006;2023-05-03T12:08:52;101359.88;;;23.61;39.65
24230;BME280;12362;50.004;8.006;2023-05-03T12:11:17;101369.50;;;23.83;37.63
24230;BME280;12362;50.004;8.006;2023-05-03T12:13:55;101374.34;;;23.78;39.28
24230;BME280;12362;50.004;8.006;2023-05-03T12:16:47;101371.25;;;24.31;40.64
24230;BME280;12362;50.004;8.006;2023-05-03T12:19:30;101372.78;;;24.14;38.62
24230;BME280;12362;50.004;8.006;2023-05-03T12:22:06;101370.63;;;23.80;40.71
24230;BME280;12362;50.004;8.006;2023-05-03T12:25:32;101366.34;;;24.17;37.02
24230;BME280;12362;50.004;8.006;2023-05-03T12:28:22;101360.22;;;24.35;38.04
24230;BME280;12362;50.004;8.006;2023-05-03T12:31:17;101365.97;;;24.21;37.97
24230;BME280;12362;50.004;8.006;2023-05-03T12:34:01;101354.16;;;24.05;38.03
24230;BME280;12362;50.004;8.006;2023-05-03T12:36:29;101338.22;;;25.28;36.32
24230;BME280;12362;50.004;8.006;2023-05-03T12:39:30;101351.63;;;24.62;37.70
24230;BME280;12362;50.004;8.006;2023-05-03T12:42:01;101342.09;;;24.69;38.04
24230;BME280;12362;50.004;8.006;2023-05-03T12:44:50;101339.16;;;24.53;35.62
24230;BME280;12362;50.004;8.006;2023-05-03T12:47:16;101335.22;;;24.85;39.91
24230;BME280;12362;50.004;8.006;2023-05-03T12:49:41;101328.59;;;25.08;36.79
24230;BME280;12362;50.004;8.006;2023-05-03T12:59:29;101312.94;;;25.14;35.87
24230;BME280;12362;50.004;8.006;2023-05-03T13:01:55;101317.50;;;24.57;38.49
24230;BME280;12362;50.004;8.006;2023-05-03T13:04:21;101293.75;;;25.11;35.04
24230;BME280;12362;50.004;8.006;2023-05-03T13:06:47;101298.91;;;24.57;37.18
24230;BME280;12362;50.004;8.006;2023-05-03T13:09:15;101302.22;;;24.78;38.20
24230;BME280;12362;50.004;8.006;2023-05-03T13:11:44;101296.31;;;25.39;36.25
24230;BME280;12362;50.004;8.006;2023-05-03T13:14:11;101300.59;;;25.23;37.21
24230;BME280;12362;50.004;8.006;2023-05-03T13:16:41;101295.78;;;25.36;35.96
24230;BME280;12362;50.004;8.006;2023-05-03T13:19:08;101301.41;;;24.49;40.31
24230;BME280;12362;50.004;8.006;2023-05-03T13:21:34;101292.50;;;24.96;36.93
24230;BME280;12362;50.004;8.006;2023-05-03T13:24:00;101299.50;;;25.06;35.97
24230;BME280;12362;50.004;8.006;2023-05-03T13:26:25;101294.59;;;25.11;35.04
24230;BME280;12362;50.004;8.006;2023-05-03T13:28:51;101283.22;;;24.35;34.80
24230;BME280;12362;50.004;8.006;2023-05-03T13:31:16;101286.47;;;25.22;36.29
24230;BME280;12362;50.004;8.006;2023-05-03T13:33:43;101277.69;;;25.03;34.11
24230;BME280;12362;50.004;8.006;2023-05-03T13:36:11;101268.94;;;24.83;35.83
24230;BME280;12362;50.004;8.006;2023-05-03T13:38:36;101269.91;;;24.73;36.01
24230;BME280;12362;50.004;8.006;2023-05-03T13:41:06;101268.06;;;25.29;38.16
24230;BME280;12362;50.004;8.006;2023-05-03T13:43:34;101257.75;;;25.70;32.23
24230;BME280;12362;50.004;8.006;2023-05-03T13:46:00;101258.44;;;25.99;34.48
24230;BME280;12362;50.004;8.006;2023-05-03T13:48:27;101268.25;;;25.54;36.03
24230;BME280;12362;50.004;8.006;2023-05-03T13:50:52;101269.56;;;25.04;34.92
24230;BME280;12362;50.004;8.006;2023-05-03T13:53:18;101266.81;;;24.87;35.11